createdAt,value
2018-02-15T00:00:48.258Z,37.40
2018-02-15T00:03:17.770Z,37.20
2018-02-15T00:05:46.658Z,36.27
2018-02-15T00:08:15.741Z,39.47
2018-02-15T00:10:44.837Z,37.30
2018-02-15T00:13:13.737Z,37.70
2018-02-15T00:15:42.684Z,37.40
2018-02-15T00:18:11.502Z,36.87
2018-02-15T00:20:40.399Z,40.47
2018-02-15T00:23:09.304Z,37.43
2018-02-15T00:25:38.241Z,33.50
2018-02-15T00:28:06.957Z,36.17
2018-02-15T00:30:35.742Z,37.43
2018-02-15T00:33:04.776Z,38.17
2018-02-15T00:35:33.634Z,36.43
2018-02-15T00:38:03.050Z,36.37
2018-02-15T00:40:31.941Z,36.63
2018-02-15T00:43:01.230Z,37.13
2018-02-15T00:45:30.086Z,37.73
2018-02-15T00:47:58.809Z,39.30
2018-02-15T00:50:27.913Z,36.93
2018-02-15T00:52:56.685Z,39.50
2018-02-15T00:55:25.413Z,41.40
2018-02-15T00:57:54.792Z,39.47
2018-02-15T01:00:23.589Z,40.80
2018-02-15T01:02:52.933Z,40.67
2018-02-15T01:05:21.630Z,39.37
2018-02-15T01:07:50.757Z,38.63
2018-02-15T01:10:19.645Z,41.57
2018-02-15T01:12:48.452Z,41.53
2018-02-15T01:15:17.209Z,40.33
2018-02-15T01:17:46.033Z,40.90
2018-02-15T01:20:14.854Z,42.20
2018-02-15T01:22:43.794Z,38.03
2018-02-15T01:25:12.470Z,38.97
2018-02-15T01:27:41.436Z,42.63
2018-02-15T01:30:10.468Z,41.50
2018-02-15T01:32:39.273Z,38.27
2018-02-15T01:35:08.232Z,41.80
2018-02-15T01:37:37.133Z,41.47
2018-02-15T01:40:05.939Z,44.13
2018-02-15T01:42:35.023Z,45.57
2018-02-15T01:45:04.238Z,44.27
2018-02-15T01:47:33.037Z,42.83
2018-02-15T01:50:04.962Z,44.57
2018-02-15T01:52:33.850Z,41.60
2018-02-15T01:55:02.482Z,44.70
2018-02-15T01:57:31.184Z,42.37
2018-02-15T02:00:02.068Z,45.60
2018-02-15T02:02:31.135Z,46.57
2018-02-15T02:05:00.045Z,40.97
2018-02-15T02:07:28.861Z,40.80
2018-02-15T02:09:58.013Z,39.10
2018-02-15T02:12:27.936Z,40.40
2018-02-15T02:14:56.703Z,37.90
2018-02-15T02:17:25.452Z,38.43
2018-02-15T02:19:54.812Z,38.33
2018-02-15T02:22:23.500Z,39.60
2018-02-15T02:24:52.568Z,33.37
2018-02-15T02:27:21.427Z,31.60
2018-02-15T02:29:50.499Z,30.30
2018-02-15T02:32:19.676Z,32.37
2018-02-15T02:34:48.628Z,32.43
2018-02-15T02:37:17.352Z,29.73
2018-02-15T02:39:46.154Z,34.00
2018-02-15T02:42:15.049Z,32.80
2018-02-15T02:44:44.137Z,35.13
2018-02-15T02:47:12.889Z,32.77
2018-02-15T02:49:41.499Z,32.50
2018-02-15T02:52:10.315Z,30.33
2018-02-15T02:54:38.916Z,35.10
2018-02-15T02:57:07.688Z,34.23
2018-02-15T02:59:36.659Z,35.63
2018-02-15T03:02:05.685Z,35.30
2018-02-15T03:04:34.380Z,35.40
2018-02-15T03:07:03.326Z,34.37
2018-02-15T03:09:32.227Z,35.57
2018-02-15T03:12:01.118Z,34.87
2018-02-15T03:14:30.006Z,34.57
2018-02-15T03:16:58.775Z,35.20
2018-02-15T03:19:27.381Z,31.40
2018-02-15T03:21:56.293Z,36.53
2018-02-15T03:24:25.163Z,34.27
2018-02-15T03:26:54.255Z,33.67
2018-02-15T03:29:22.865Z,35.77
2018-02-15T03:31:51.646Z,37.50
2018-02-15T03:34:20.300Z,32.23
2018-02-15T03:36:49.144Z,28.13
2018-02-15T03:39:18.093Z,33.03
2018-02-15T03:41:46.987Z,30.93
2018-02-15T03:44:16.082Z,32.60
2018-02-15T03:46:44.689Z,29.07
2018-02-15T03:49:13.642Z,29.13
2018-02-15T03:51:43.136Z,29.93
2018-02-15T03:54:11.813Z,32.70
2018-02-15T03:56:40.544Z,35.20
2018-02-15T03:59:09.264Z,33.27
2018-02-15T04:01:38.086Z,33.13
2018-02-15T04:04:06.989Z,35.20
2018-02-15T04:06:35.682Z,35.50
2018-02-15T04:09:04.545Z,35.10
2018-02-15T04:11:33.360Z,34.83
2018-02-15T04:14:02.355Z,35.40
2018-02-15T04:16:31.244Z,36.47
2018-02-15T04:19:00.550Z,33.13
2018-02-15T04:21:29.190Z,33.00
2018-02-15T04:23:57.963Z,36.43
2018-02-15T04:26:26.800Z,34.50
2018-02-15T04:28:55.468Z,37.03
2018-02-15T04:31:24.587Z,37.63
2018-02-15T04:33:53.390Z,35.43
2018-02-15T04:36:22.218Z,37.80
2018-02-15T04:38:51.106Z,34.80
2018-02-15T04:41:20.061Z,34.17
2018-02-15T04:43:48.677Z,33.33
2018-02-15T04:46:17.522Z,35.40
2018-02-15T04:48:46.257Z,35.50
2018-02-15T04:51:15.006Z,34.50
2018-02-15T04:53:43.769Z,34.77
2018-02-15T04:56:12.664Z,35.27
2018-02-15T04:58:41.420Z,33.97
2018-02-15T05:04:05.220Z,35.07
2018-02-15T05:06:33.765Z,36.23
2018-02-15T05:09:02.169Z,35.90
2018-02-15T05:11:30.528Z,35.33
2018-02-15T05:13:58.886Z,37.30
2018-02-15T05:16:27.301Z,35.47
2018-02-15T05:18:55.660Z,37.43
2018-02-15T05:21:24.022Z,35.33
2018-02-15T05:23:52.454Z,34.30
2018-02-15T05:26:20.778Z,35.73
2018-02-15T05:28:49.092Z,33.40
2018-02-15T05:31:17.526Z,31.63
2018-02-15T05:33:45.877Z,32.17
2018-02-15T05:36:14.492Z,32.27
2018-02-15T05:38:42.936Z,33.33
2018-02-15T05:41:11.273Z,32.80
2018-02-15T05:43:39.665Z,30.53
2018-02-15T05:46:09.294Z,31.37
2018-02-15T05:48:37.905Z,32.40
2018-02-15T05:51:06.341Z,33.00
2018-02-15T05:53:34.651Z,30.53
2018-02-15T05:56:03.057Z,32.20
2018-02-15T05:58:31.337Z,33.57
2018-02-15T06:00:59.900Z,34.97
2018-02-15T06:03:28.220Z,32.80
2018-02-15T06:05:56.662Z,33.10
2018-02-15T06:08:25.121Z,35.00
2018-02-15T06:10:53.529Z,32.50
2018-02-15T06:13:22.009Z,33.63
2018-02-15T06:15:50.433Z,30.90
2018-02-15T06:18:18.819Z,32.47
2018-02-15T06:20:47.362Z,32.83
2018-02-15T06:23:15.925Z,33.33
2018-02-15T06:25:44.386Z,34.57
2018-02-15T06:28:12.766Z,33.87
2018-02-15T06:30:41.334Z,36.07
2018-02-15T06:33:09.748Z,37.63
2018-02-15T06:35:38.109Z,34.20
2018-02-15T06:38:06.498Z,37.30
2018-02-15T06:40:35.055Z,33.20
2018-02-15T06:43:03.482Z,36.10
2018-02-15T06:45:32.015Z,35.77
2018-02-15T06:48:00.428Z,37.57
2018-02-15T06:50:33.427Z,34.53
2018-02-15T06:53:01.992Z,37.63
2018-02-15T06:55:30.390Z,34.20
2018-02-15T06:57:58.739Z,37.67
2018-02-15T07:00:27.145Z,37.47
2018-02-15T07:02:55.502Z,34.50
2018-02-15T07:05:24.963Z,33.80
2018-02-15T07:07:53.573Z,35.73
2018-02-15T07:10:22.569Z,34.73
2018-02-15T07:12:50.902Z,32.87
2018-02-15T07:15:19.367Z,35.70
2018-02-15T07:17:48.054Z,32.90
2018-02-15T07:20:16.434Z,31.50
2018-02-15T07:22:44.865Z,34.13
2018-02-15T07:25:13.272Z,31.83
2018-02-15T07:27:41.636Z,30.90
2018-02-15T07:30:10.018Z,30.47
2018-02-15T07:32:38.550Z,31.70
2018-02-15T07:35:06.993Z,29.30
2018-02-15T07:37:35.386Z,29.77
2018-02-15T07:40:04.145Z,27.20
2018-02-15T07:42:32.590Z,29.50
2018-02-15T07:45:00.886Z,29.80
2018-02-15T07:47:29.990Z,30.03
2018-02-15T07:49:58.362Z,28.60
2018-02-15T07:52:26.750Z,25.87
2018-02-15T07:54:55.053Z,29.90
2018-02-15T07:57:23.498Z,27.50
2018-02-15T07:59:51.822Z,28.93
2018-02-15T08:02:23.300Z,29.93
2018-02-15T08:04:51.722Z,28.63
2018-02-15T08:07:20.446Z,28.27
2018-02-15T08:09:48.861Z,29.90
2018-02-15T08:12:17.214Z,28.93
2018-02-15T08:14:45.599Z,29.53
2018-02-15T08:17:13.992Z,26.00
2018-02-15T08:19:42.438Z,27.30
2018-02-15T08:22:10.889Z,27.60
2018-02-15T08:24:39.450Z,29.30
2018-02-15T08:27:07.877Z,25.90
2018-02-15T08:29:36.525Z,25.90
2018-02-15T08:32:05.046Z,26.30
2018-02-15T08:34:33.516Z,25.33
2018-02-15T08:37:01.898Z,26.70
2018-02-15T08:39:30.243Z,23.03
2018-02-15T08:41:58.754Z,25.33
2018-02-15T08:44:27.028Z,25.07
2018-02-15T08:46:55.378Z,25.27
2018-02-15T08:49:23.750Z,25.23
2018-02-15T08:51:52.200Z,24.43
2018-02-15T08:54:20.797Z,25.40
2018-02-15T08:56:49.345Z,23.60
2018-02-15T08:59:17.834Z,26.07
2018-02-15T09:01:46.308Z,27.03
2018-02-15T09:04:14.630Z,23.90
2018-02-15T09:06:43.311Z,25.10
2018-02-15T09:09:11.611Z,19.37
2018-02-15T09:11:39.973Z,25.43
2018-02-15T09:14:08.507Z,25.27
2018-02-15T09:16:36.828Z,26.10
2018-02-15T09:19:05.262Z,24.00
2018-02-15T09:21:33.608Z,25.70
2018-02-15T09:24:01.875Z,25.47
2018-02-15T09:26:30.164Z,26.70
2018-02-15T09:28:58.709Z,25.23
2018-02-15T09:31:27.318Z,24.10
2018-02-15T09:33:55.649Z,23.50
2018-02-15T09:36:24.133Z,24.10
2018-02-15T09:38:52.450Z,23.40
2018-02-15T09:41:20.753Z,24.10
2018-02-15T09:43:49.156Z,22.40
2018-02-15T09:46:17.467Z,22.50
2018-02-15T09:48:45.765Z,23.33
2018-02-15T09:51:14.095Z,23.63
2018-02-15T09:53:42.456Z,24.87
2018-02-15T09:56:10.774Z,23.60
2018-02-15T09:58:39.060Z,23.50
2018-02-15T10:01:07.380Z,22.33
2018-02-15T10:03:35.755Z,23.83
2018-02-15T10:06:04.056Z,22.50
2018-02-15T10:08:32.345Z,22.40
2018-02-15T10:11:00.815Z,21.80
2018-02-15T10:13:29.378Z,24.33
2018-02-15T10:15:57.785Z,22.63
2018-02-15T10:18:26.053Z,21.60
2018-02-15T10:20:54.351Z,22.80
2018-02-15T10:23:22.667Z,22.77
2018-02-15T10:25:51.316Z,21.00
2018-02-15T10:28:19.656Z,23.00
2018-02-15T10:30:47.953Z,21.10
2018-02-15T10:33:16.388Z,22.07
2018-02-15T10:35:44.729Z,21.80
2018-02-15T10:38:13.028Z,21.03
2018-02-15T10:40:41.367Z,22.57
2018-02-15T10:43:09.670Z,23.80
2018-02-15T10:45:38.009Z,23.40
2018-02-15T10:48:06.325Z,22.97
2018-02-15T10:50:34.706Z,21.70
2018-02-15T10:53:03.003Z,23.17
2018-02-15T10:55:31.304Z,24.37
2018-02-15T10:57:59.585Z,21.63
2018-02-15T11:00:32.066Z,24.30
2018-02-15T11:03:04.711Z,23.50
2018-02-15T11:05:37.560Z,22.70
2018-02-15T11:08:05.797Z,22.13
2018-02-15T11:10:34.183Z,22.03
2018-02-15T11:13:02.704Z,22.47
2018-02-15T11:15:31.031Z,23.47
2018-02-15T11:17:59.291Z,23.10
2018-02-15T11:20:27.600Z,24.30
2018-02-15T11:22:55.965Z,22.50
2018-02-15T11:25:24.282Z,21.67
2018-02-15T11:27:52.552Z,22.30
2018-02-15T11:30:20.862Z,22.10
2018-02-15T11:32:49.261Z,23.93
2018-02-15T11:35:17.742Z,20.67
2018-02-15T11:37:46.285Z,23.97
2018-02-15T11:40:14.576Z,21.73
2018-02-15T11:42:42.883Z,23.77
2018-02-15T11:45:11.220Z,21.60
2018-02-15T11:47:39.929Z,21.60
2018-02-15T11:50:08.660Z,21.70
2018-02-15T11:52:36.954Z,23.30
2018-02-15T11:55:05.379Z,23.43
2018-02-15T11:57:33.655Z,24.10
2018-02-15T12:00:01.905Z,24.63
2018-02-15T12:02:30.316Z,23.23
2018-02-15T12:04:58.564Z,24.73
2018-02-15T12:07:26.880Z,26.73
2018-02-15T12:09:55.395Z,24.30
2018-02-15T12:12:23.735Z,23.40
2018-02-15T12:14:52.456Z,25.50
2018-02-15T12:17:20.968Z,22.73
2018-02-15T12:19:49.348Z,24.93
2018-02-15T12:22:17.679Z,26.23
2018-02-15T12:24:46.107Z,24.53
2018-02-15T12:27:14.431Z,23.10
2018-02-15T12:29:42.684Z,24.47
2018-02-15T12:32:10.996Z,25.57
2018-02-15T12:34:39.413Z,23.90
2018-02-15T12:37:07.813Z,25.50
2018-02-15T12:39:36.183Z,22.83
2018-02-15T12:42:04.936Z,24.10
2018-02-15T12:44:33.217Z,25.03
2018-02-15T12:47:01.541Z,24.33
2018-02-15T12:49:29.816Z,23.30
2018-02-15T12:51:58.172Z,24.10
2018-02-15T12:54:26.505Z,24.57
2018-02-15T12:56:54.956Z,22.83
2018-02-15T12:59:23.226Z,23.53
2018-02-15T13:01:51.644Z,23.33
2018-02-15T13:04:19.988Z,25.63
2018-02-15T13:06:48.472Z,23.50
2018-02-15T13:09:18.100Z,23.43
2018-02-15T13:11:46.706Z,23.03
2018-02-15T13:14:15.149Z,24.10
2018-02-15T13:16:53.256Z,22.80
2018-02-15T13:20:30.431Z,21.93
2018-02-15T13:22:58.739Z,23.10
2018-02-15T13:25:27.804Z,21.47
2018-02-15T13:28:07.401Z,22.33
2018-02-15T13:30:35.739Z,22.17
2018-02-15T13:33:05.847Z,22.07
2018-02-15T13:35:35.516Z,22.10
2018-02-15T13:38:03.822Z,22.30
2018-02-15T13:40:32.154Z,23.37
2018-02-15T13:43:00.423Z,22.40
2018-02-15T13:45:28.951Z,21.43
2018-02-15T13:47:57.234Z,21.20
2018-02-15T13:50:25.666Z,22.33
2018-02-15T13:52:53.926Z,20.40
2018-02-15T13:55:22.488Z,22.00
2018-02-15T13:57:50.959Z,23.00
2018-02-15T14:00:19.372Z,22.20
2018-02-15T14:02:47.754Z,21.23
2018-02-15T14:05:16.297Z,21.40
2018-02-15T14:07:44.637Z,22.47
2018-02-15T14:10:13.079Z,22.80
2018-02-15T14:12:41.578Z,21.80
2018-02-15T14:15:10.181Z,20.60
2018-02-15T14:17:38.533Z,21.40
2018-02-15T14:20:07.001Z,22.33
2018-02-15T14:22:35.378Z,20.13
2018-02-15T14:25:03.712Z,19.63
2018-02-15T14:27:32.451Z,21.23
2018-02-15T14:30:00.901Z,20.30
2018-02-15T14:32:29.431Z,21.20
2018-02-15T14:34:58.075Z,19.23
2018-02-15T14:37:26.532Z,20.53
2018-02-15T14:39:54.898Z,20.63
2018-02-15T14:42:23.305Z,22.27
2018-02-15T14:44:51.855Z,20.97
2018-02-15T14:47:20.472Z,20.17
2018-02-15T14:49:48.827Z,19.83
2018-02-15T14:52:17.314Z,20.83
2018-02-15T14:54:45.882Z,21.47
2018-02-15T14:57:14.389Z,20.10
2018-02-15T14:59:43.925Z,22.63
2018-02-15T15:02:12.382Z,22.27
2018-02-15T15:04:40.925Z,19.23
2018-02-15T15:07:09.326Z,21.77
2018-02-15T15:09:37.702Z,21.63
2018-02-15T15:12:06.546Z,20.87
2018-02-15T15:14:34.996Z,20.70
2018-02-15T15:17:03.510Z,20.90
2018-02-15T15:19:32.110Z,20.10
2018-02-15T15:22:00.613Z,20.77
2018-02-15T15:24:29.086Z,20.40
2018-02-15T15:26:57.495Z,20.17
2018-02-15T15:29:26.321Z,20.00
2018-02-15T15:31:54.669Z,18.40
2018-02-15T15:34:23.494Z,21.50
2018-02-15T15:36:58.136Z,20.70
2018-02-15T15:39:30.202Z,19.70
2018-02-15T15:41:59.579Z,20.10
2018-02-15T15:44:27.998Z,19.80
2018-02-15T15:46:56.473Z,19.60
2018-02-15T15:49:24.814Z,19.63
2018-02-15T15:51:53.264Z,20.13
2018-02-15T15:54:21.626Z,19.43
2018-02-15T15:56:50.029Z,20.13
2018-02-15T15:59:18.399Z,20.40
2018-02-15T16:01:46.777Z,18.53
2018-02-15T16:04:15.605Z,17.73
2018-02-15T16:06:44.118Z,17.27
2018-02-15T16:09:12.482Z,18.47
2018-02-15T16:11:40.857Z,19.40
2018-02-15T16:14:09.342Z,20.33
2018-02-15T16:16:44.441Z,18.53
2018-02-15T16:19:12.791Z,17.97
2018-02-15T16:21:41.236Z,18.23
2018-02-15T16:24:09.610Z,18.43
2018-02-15T16:26:37.980Z,17.73
2018-02-15T16:29:06.309Z,18.87
2018-02-15T16:31:34.935Z,19.87
2018-02-15T16:34:03.246Z,18.53
2018-02-15T16:36:31.634Z,18.03
2018-02-15T16:38:59.978Z,19.50
2018-02-15T16:41:28.372Z,19.60
2018-02-15T16:43:56.683Z,19.67
2018-02-15T16:46:25.081Z,16.97
2018-02-15T16:48:53.516Z,18.67
2018-02-15T16:51:21.866Z,18.90
2018-02-15T16:53:50.355Z,17.40
2018-02-15T16:56:18.861Z,18.13
2018-02-15T16:58:47.249Z,18.30
2018-02-15T17:01:15.781Z,19.80
2018-02-15T17:03:44.175Z,19.10
2018-02-15T17:06:12.865Z,18.80
2018-02-15T17:08:41.258Z,16.63
2018-02-15T17:11:09.745Z,16.90
2018-02-15T17:13:38.209Z,18.67
2018-02-15T17:16:06.561Z,17.60
2018-02-15T17:18:34.943Z,17.50
2018-02-15T17:21:03.459Z,18.07
2018-02-15T17:23:31.902Z,18.00
2018-02-15T17:26:00.421Z,14.70
2018-02-15T17:28:28.741Z,16.83
2018-02-15T17:30:57.168Z,15.97
2018-02-15T17:33:25.618Z,16.00
2018-02-15T17:35:53.998Z,16.57
2018-02-15T17:38:22.335Z,17.33
2018-02-15T17:40:50.921Z,16.80
2018-02-15T17:43:19.270Z,16.60
2018-02-15T17:45:48.691Z,17.23
2018-02-15T17:48:17.125Z,18.03
2018-02-15T17:50:45.490Z,17.03
2018-02-15T17:53:14.078Z,16.00
2018-02-15T17:55:42.762Z,17.40
2018-02-15T17:58:11.350Z,16.77
2018-02-15T18:00:39.841Z,16.50
2018-02-15T18:03:08.253Z,17.37
2018-02-15T18:05:36.716Z,17.10
2018-02-15T18:08:05.025Z,18.00
2018-02-15T18:10:33.504Z,17.37
2018-02-15T18:13:01.893Z,17.90
2018-02-15T18:15:30.283Z,18.33
2018-02-15T18:17:58.647Z,18.17
2018-02-15T18:20:27.215Z,18.03
2018-02-15T18:22:55.549Z,18.90
2018-02-15T18:25:23.922Z,19.47
2018-02-15T18:27:52.283Z,17.70
2018-02-15T18:30:21.072Z,16.40
2018-02-15T18:32:49.589Z,16.87
2018-02-15T18:35:18.086Z,18.47
2018-02-15T18:37:46.530Z,16.40
2018-02-15T18:40:15.082Z,16.10
2018-02-15T18:42:43.471Z,18.00
2018-02-15T18:45:12.023Z,17.13
2018-02-15T18:47:40.549Z,17.13
2018-02-15T18:50:08.999Z,19.47
2018-02-15T18:52:37.370Z,18.20
2018-02-15T18:55:05.805Z,16.90
2018-02-15T18:57:34.527Z,24.17
2018-02-15T19:00:03.173Z,20.13
2018-02-15T19:02:31.921Z,17.30
2018-02-15T19:05:00.562Z,17.63
2018-02-15T19:07:28.973Z,21.77
2018-02-15T19:09:57.319Z,18.07
2018-02-15T19:12:25.949Z,18.43
2018-02-15T19:14:54.557Z,16.80
2018-02-15T19:17:23.043Z,17.10
2018-02-15T19:19:51.422Z,16.37
2018-02-15T19:22:20.289Z,17.33
2018-02-15T19:24:48.929Z,17.53
2018-02-15T19:27:17.358Z,15.70
2018-02-15T19:29:45.710Z,16.17
2018-02-15T19:32:14.072Z,15.47
2018-02-15T19:34:42.680Z,15.90
2018-02-15T19:37:11.084Z,15.90
2018-02-15T19:39:39.414Z,16.30
2018-02-15T19:42:07.889Z,15.50
2018-02-15T19:44:36.634Z,15.63
2018-02-15T19:47:05.158Z,15.90
2018-02-15T19:49:33.802Z,15.53
2018-02-15T19:52:02.182Z,16.00
2018-02-15T19:54:30.711Z,17.00
2018-02-15T19:56:59.066Z,16.80
2018-02-15T19:59:27.448Z,22.57
2018-02-15T20:02:58.834Z,15.20
2018-02-15T20:05:27.285Z,15.53
2018-02-15T20:07:55.735Z,15.47
2018-02-15T20:10:24.613Z,14.00
2018-02-15T20:12:53.210Z,15.00
2018-02-15T20:15:21.979Z,15.83
2018-02-15T20:17:50.505Z,15.43
2018-02-15T20:20:23.082Z,15.47
2018-02-15T20:22:51.465Z,15.07
2018-02-15T20:25:19.861Z,15.70
2018-02-15T20:28:25.462Z,15.67
2018-02-15T20:30:53.878Z,15.10
2018-02-15T20:33:22.218Z,15.90
2018-02-15T20:35:50.593Z,17.17
2018-02-15T20:38:23.113Z,15.00
2018-02-15T20:40:51.527Z,16.13
2018-02-15T20:43:19.901Z,15.23
2018-02-15T20:45:48.428Z,15.80
2018-02-15T20:48:16.775Z,16.23
2018-02-15T20:52:51.906Z,17.23
2018-02-15T20:55:53.835Z,17.90
2018-02-15T20:58:22.405Z,17.10
2018-02-15T21:00:50.905Z,16.87
2018-02-15T21:03:19.251Z,18.23
2018-02-15T21:05:47.681Z,18.60
2018-02-15T21:08:16.030Z,18.43
2018-02-15T21:10:44.790Z,17.43
2018-02-15T21:13:13.177Z,17.53
2018-02-15T21:15:41.545Z,20.00
2018-02-15T21:18:10.167Z,19.80
2018-02-15T21:20:38.644Z,18.97
2018-02-15T21:23:07.064Z,20.67
2018-02-15T21:25:35.438Z,17.80
2018-02-15T21:28:03.864Z,19.63
2018-02-15T21:30:32.592Z,19.33
2018-02-15T21:33:01.010Z,19.60
2018-02-15T21:35:29.542Z,19.60
2018-02-15T21:37:57.873Z,19.87
2018-02-15T21:40:26.308Z,19.30
2018-02-15T21:42:54.836Z,20.03
2018-02-15T21:45:23.216Z,19.90
2018-02-15T21:47:51.572Z,20.90
2018-02-15T21:50:19.949Z,21.70
2018-02-15T21:52:48.329Z,19.13
2018-02-15T21:55:16.714Z,19.57
2018-02-15T21:57:45.538Z,20.23
2018-02-15T22:00:13.926Z,19.80
2018-02-15T22:02:43.093Z,21.43
2018-02-15T22:05:11.465Z,20.90
2018-02-15T22:07:39.842Z,20.97
2018-02-15T22:10:08.330Z,22.47
2018-02-15T22:12:36.697Z,22.90
2018-02-15T22:15:05.066Z,22.67
2018-02-15T22:17:33.693Z,21.93
2018-02-15T22:20:02.230Z,21.83
2018-02-15T22:22:30.657Z,21.27
2018-02-15T22:24:58.945Z,22.80
2018-02-15T22:27:27.336Z,22.87
2018-02-15T22:29:55.664Z,22.97
2018-02-15T22:32:24.129Z,23.47
2018-02-15T22:34:52.477Z,23.80
2018-02-15T22:37:20.828Z,24.17
2018-02-15T22:39:49.121Z,21.80
2018-02-15T22:42:17.860Z,24.67
2018-02-15T22:44:46.158Z,23.37
2018-02-15T22:47:14.550Z,24.90
2018-02-15T22:49:42.860Z,23.53
2018-02-15T22:52:11.289Z,24.70
2018-02-15T22:54:39.572Z,24.03
2018-02-15T22:57:07.950Z,24.73
2018-02-15T22:59:36.349Z,23.67
2018-02-15T23:02:04.751Z,24.30
2018-02-15T23:04:33.067Z,23.70
2018-02-15T23:07:01.465Z,23.70
2018-02-15T23:09:30.013Z,23.87
2018-02-15T23:11:58.507Z,24.60
2018-02-15T23:14:26.964Z,22.80
2018-02-15T23:16:55.389Z,22.83
2018-02-15T23:19:23.721Z,24.13
2018-02-15T23:21:52.054Z,24.23
2018-02-15T23:24:20.452Z,23.40
2018-02-15T23:26:48.772Z,24.27
2018-02-15T23:29:17.076Z,25.27
2018-02-15T23:31:45.561Z,24.17
2018-02-15T23:34:14.281Z,25.60
2018-02-15T23:36:42.829Z,24.40
2018-02-15T23:39:11.120Z,23.47
2018-02-15T23:41:39.438Z,25.20
2018-02-15T23:44:07.829Z,25.10
2018-02-15T23:46:36.306Z,26.27
2018-02-15T23:49:04.645Z,25.50
2018-02-15T23:51:33.190Z,26.53
2018-02-15T23:54:01.732Z,24.70
2018-02-15T23:56:30.076Z,23.70
2018-02-15T23:58:58.635Z,24.70
